deformed-offering

Nearby METAR Reports

 

KSJC - San Jose, California, USA
Distance from station: NE 9mi, 14km
Updated: Mon, 26-Feb-2024 9:53am PST
Partly cloudy
Partly cloudy
 Wind from SSE
Wind: SSE 5 mph , 7 km/h
Temperature: 59°F , 15°C
Dew Point: 46°F , 8°C
Humidity: 63%
Barometer: 30.04 inHg , 1017.3 hPa
Clouds: Partly cloudy
Visibility: 10 miles , 16 km
Cloud details: Few Clouds 2000 ft
Partly cloudy 7500 ft
Partly cloudy 10000 ft
2024/02/26 17:53 KSJC 261753Z 15004KT 10SM FEW020 SCT075 SCT100 15/08 A3004 RMK AO2 SLP171 T01500083 10150 20100 58002
KPAO - Palo Alto, California, USA
Distance from station: NNW 14mi, 23km
Updated: Mon, 26-Feb-2024 9:47am PST
Few Clouds
Few Clouds
 Wind from varies
Wind: varies 6 mph , 9 km/h
Temperature: 57°F , 14°C
Dew Point: 50°F , 10°C
Humidity: 77%
Barometer: 30.04 inHg , 1017.3 hPa
Clouds: Few Clouds
Visibility: 10 miles , 16 km
Cloud details: Few Clouds 5000 ft
2024/02/26 17:47 KPAO 261747Z VRB05KT 10SM FEW050 14/10 A3004
 
KSQL - San Carlos Airpo, California, USA
Distance from station: NW 21mi, 34km
Updated: Mon, 26-Feb-2024 9:50am PST
Few Clouds
Few Clouds
 Wind from ENE
Wind: ENE 3 mph , 6 km/h
Temperature: 57°F , 14°C
Dew Point: 52°F , 11°C
Humidity: 82%
Barometer: 30.05 inHg , 1017.6 hPa
Clouds: Few Clouds
Visibility: 10 miles , 16 km
Cloud details: Few Clouds 2700 ft
2024/02/26 17:50 KSQL 261750Z 06003KT 10SM FEW027 14/11 A3005
KWVI - Watsonville, California, USA
Distance from station: SSE 27mi, 44km
Updated: Sun, 25-Feb-2024 11:53am PST
NOT Current
Clear
Clear
 Wind from WSW
Wind: WSW 8 mph , 13 km/h
Barometer: 30.08 inHg , 1018.6 hPa
Clouds: Clear
Visibility: 10 miles , 16 km
2024/02/25 19:53 KWVI 251953Z AUTO 24007KT 10SM CLR A3008 RMK AO2 SLPNO $
 
KHWD - Hayward, California, USA
Distance from station: N 28mi, 44km
Updated: Mon, 26-Feb-2024 10:01am PST
Overcast
Overcast
 Wind from W
Wind: W 3 mph , 6 km/h
Temperature: 59°F , 15°C
Dew Point: 52°F , 11°C
Humidity: 77%
Barometer: 30.05 inHg , 1017.6 hPa
Clouds: Overcast
Visibility: 10 miles , 16 km
Cloud details: Overcast 1600 ft
2024/02/26 18:01 KHWD 261801Z 28003KT 10SM OVC016 15/11 A3005 RMK AO2 T01500106
KSFO - San Francisco, California, USA
Distance from station: NW 30mi, 49km
Updated: Mon, 26-Feb-2024 9:56am PST
Mostly cloudy
Mostly cloudy
 Wind from ENE
Wind: ENE 7 mph , 11 km/h
Temperature: 57°F , 14°C
Dew Point: 50°F , 10°C
Humidity: 77%
Barometer: 30.04 inHg , 1017.3 hPa
Clouds: Mostly cloudy
Visibility: 10 miles , 16 km
Cloud details: Mostly cloudy 2000 ft
Mostly cloudy 4500 ft
2024/02/26 17:56 KSFO 261756Z 06006KT 10SM BKN020 BKN045 14/10 A3004 RMK AO2 SLP173 T01390100 10144 20122 55003 $
 
KHAF - Half Moon Bay, California, USA
Distance from station: WNW 31mi, 50km
Updated: Mon, 26-Feb-2024 10:35am PST
Mist, Overcast
Mist, Overcast
 Wind from NW
Wind: NW 10 mph , 17 km/h
Temperature: 57°F , 14°C
Dew Point: 55°F , 13°C
Humidity: 94%
Barometer: 30.06 inHg , 1017.9 hPa
Summary: Mist
Clouds: Overcast
Visibility: 4 miles , 6 km
Cloud details: Overcast 2400 ft
2024/02/26 18:35 KHAF 261835Z AUTO 32009KT 4SM BR OVC024 14/13 A3006 RMK AO2
KLVK - Livermore, California, USA
Distance from station: NNE 31mi, 51km
Updated: Mon, 26-Feb-2024 9:53am PST
Clear
Clear
 Wind from WNW
Wind: WNW 3 mph , 6 km/h
Temperature: 57°F , 14°C
Dew Point: 48°F , 9°C
Humidity: 72%
Barometer: 30.02 inHg , 1016.6 hPa
Clouds: Clear
Visibility: 10 miles , 16 km
2024/02/26 17:53 KLVK 261753Z 29003KT 10SM CLR 14/09 A3002 RMK AO2 SLP165 T01390094 10139 20067 58006
 
KOAK - Oakland, California, USA
Distance from station: NNW 33mi, 53km
Updated: Mon, 26-Feb-2024 10:24am PST
Mostly cloudy
Mostly cloudy
 Wind from SSE
Wind: SSE 7 mph , 11 km/h
Temperature: 57°F , 14°C
Dew Point: 52°F , 11°C
Humidity: 82%
Barometer: 30.06 inHg , 1017.9 hPa
Clouds: Mostly cloudy
Visibility: 10 miles , 16 km
Cloud details: Partly cloudy 1600 ft
Mostly cloudy 3000 ft
2024/02/26 18:24 KOAK 261824Z 16006KT 10SM SCT016 BKN030 14/11 A3006 RMK AO2 T01390106
KCVH - Hollister Muni, California, USA
Distance from station: SE 42mi, 68km
Updated: Mon, 26-Feb-2024 10:35am PST
Few Clouds
Few Clouds
 Wind from calm
Wind: Calm
Temperature: 52°F , 11°C
Dew Point: 45°F , 7°C
Humidity: 77%
Barometer: 30.06 inHg , 1017.9 hPa
Clouds: Few Clouds
Visibility: 10 miles , 16 km
Cloud details: Few Clouds 6000 ft
Few Clouds 8000 ft
2024/02/26 18:35 KCVH 261835Z AUTO 00000KT 10SM FEW060 FEW080 11/07 A3006 RMK A01
 
KSNS - Salinas, California, USA
Distance from station: SSE 48mi, 77km
Updated: Mon, 26-Feb-2024 9:53am PST
Light rain, Overcast
Light rain, Overcast
 Wind from SE
Wind: SE 12 mph , 19 km/h
Temperature: 54°F , 12°C
Dew Point: 48°F , 9°C
Humidity: 82%
Barometer: 30.06 inHg , 1017.9 hPa
Summary: Light rain
Clouds: Overcast
Visibility: 7 miles , 11 km
Cloud details: Mostly cloudy 5500 ft
Overcast 7000 ft
2024/02/26 17:53 KSNS 261753Z 13010KT 7SM -RA BKN055 OVC070 12/09 A3006 RMK AO2 RAB50 SLP188 P0000 60000 T01170094 10117 20089 53011
KMRY - Monterey, California, USA
Distance from station: SSE 49mi, 78km
Updated: Mon, 26-Feb-2024 9:54am PST
Light rain, Mist, Overcast
Light rain, Mist, Overcast
 Wind from NNW
Wind: NNW 5 mph , 7 km/h
Temperature: 55°F , 13°C
Dew Point: 52°F , 11°C
Humidity: 88%
Barometer: 30.06 inHg , 1017.9 hPa
Summary: Light rain, Mist
Clouds: Overcast
Visibility: 4 miles , 6 km
Cloud details: Partly cloudy 3900 ft
Mostly cloudy 4900 ft
Overcast 6500 ft
2024/02/26 17:54 KMRY 261754Z 33004KT 4SM -RA BR SCT039 BKN049 OVC065 13/11 A3006 RMK AO2 RAB47 SLP190 P0000 60000 T01280106 10133 20083 52010
 
KCCR - Concord, California, USA
Distance from station: N 50mi, 81km
Updated: Mon, 26-Feb-2024 9:53am PST
Mostly cloudy
Mostly cloudy
 Wind from W
Wind: W 6 mph , 9 km/h
Temperature: 57°F , 14°C
Dew Point: 50°F , 10°C
Humidity: 77%
Barometer: 30.04 inHg , 1017.3 hPa
Clouds: Mostly cloudy
Visibility: 10 miles , 16 km
Cloud details: Mostly cloudy 2000 ft
2024/02/26 17:53 KCCR 261753Z 27005KT 10SM BKN020 14/10 A3004 RMK AO2 SLP157 T01390100 10144 20117 56003
deformed-offering